createdAt,value
2018-06-11T00:00:26.017Z,14.30
2018-06-11T00:00:59.316Z,14.40
2018-06-11T00:01:32.609Z,14.40
2018-06-11T00:02:05.778Z,14.40
2018-06-11T00:02:39.029Z,14.40
2018-06-11T00:03:12.246Z,14.40
2018-06-11T00:03:45.454Z,14.30
2018-06-11T00:04:18.702Z,14.40
2018-06-11T00:04:51.971Z,14.30
2018-06-11T00:05:25.258Z,14.40
2018-06-11T00:05:58.495Z,14.40
2018-06-11T00:06:31.724Z,14.40
2018-06-11T00:07:05.394Z,14.40
2018-06-11T00:07:38.662Z,14.30
2018-06-11T00:08:11.920Z,14.30
2018-06-11T00:08:45.174Z,14.40
2018-06-11T00:09:18.448Z,14.30
2018-06-11T00:09:51.714Z,14.30
2018-06-11T00:10:24.972Z,14.30
2018-06-11T00:10:58.224Z,14.30
2018-06-11T00:11:31.424Z,14.30
2018-06-11T00:12:04.694Z,14.30
2018-06-11T00:12:37.901Z,14.30
2018-06-11T00:13:11.118Z,14.30
2018-06-11T00:13:44.332Z,14.30
2018-06-11T00:14:17.568Z,14.30
2018-06-11T00:14:50.792Z,14.30
2018-06-11T00:15:24.027Z,14.30
2018-06-11T00:15:57.243Z,14.30
2018-06-11T00:16:30.441Z,14.30
2018-06-11T00:17:03.655Z,14.20
2018-06-11T00:17:36.968Z,14.30
2018-06-11T00:18:10.195Z,14.30
2018-06-11T00:18:43.488Z,14.30
2018-06-11T00:19:16.750Z,14.20
2018-06-11T00:19:50.022Z,14.30
2018-06-11T00:20:23.252Z,14.20
2018-06-11T00:20:56.494Z,14.20
2018-06-11T00:21:29.735Z,14.20
2018-06-11T00:22:02.969Z,14.20
2018-06-11T00:22:36.188Z,14.30
2018-06-11T00:23:09.395Z,14.20
2018-06-11T00:23:42.590Z,14.20
2018-06-11T00:24:15.796Z,14.20
2018-06-11T00:24:49.007Z,14.20
2018-06-11T00:25:22.238Z,14.20
2018-06-11T00:25:55.484Z,14.10
2018-06-11T00:26:28.709Z,14.10
2018-06-11T00:27:01.951Z,14.20
2018-06-11T00:27:35.198Z,14.10
2018-06-11T00:28:08.420Z,14.10
2018-06-11T00:28:41.657Z,14.10
2018-06-11T00:29:14.884Z,14.10
2018-06-11T00:29:48.108Z,14.20
2018-06-11T00:30:21.320Z,14.20
2018-06-11T00:30:54.550Z,14.10
2018-06-11T00:31:27.802Z,14.10
2018-06-11T00:32:01.020Z,14.10
2018-06-11T00:32:34.260Z,14.20
2018-06-11T00:33:07.497Z,14.10
2018-06-11T00:33:40.696Z,14.20
2018-06-11T00:34:13.976Z,14.10
2018-06-11T00:34:47.213Z,14.10
2018-06-11T00:35:20.478Z,14.10
2018-06-11T00:35:53.708Z,14.10
2018-06-11T00:36:26.979Z,14.10
2018-06-11T00:37:00.206Z,14.10
2018-06-11T00:37:33.472Z,14.10
2018-06-11T00:38:06.742Z,14.10
2018-06-11T00:38:39.954Z,14.10
2018-06-11T00:39:13.230Z,14.10
2018-06-11T00:39:46.538Z,14.10
2018-06-11T00:40:19.764Z,14.10
2018-06-11T00:40:53.008Z,14.10
2018-06-11T00:41:26.237Z,14.10
2018-06-11T00:41:59.461Z,14.10
2018-06-11T00:42:32.681Z,14.10
2018-06-11T00:43:05.988Z,14.10
2018-06-11T00:43:39.265Z,14.10
2018-06-11T00:44:12.486Z,14.00
2018-06-11T00:44:45.692Z,14.00
2018-06-11T00:45:18.938Z,14.00
2018-06-11T00:45:52.216Z,14.10
2018-06-11T00:46:25.430Z,14.10
2018-06-11T00:46:58.648Z,14.00
2018-06-11T00:47:31.884Z,14.10
2018-06-11T00:48:05.180Z,14.10
2018-06-11T00:48:38.431Z,14.10
2018-06-11T00:49:11.645Z,14.00
2018-06-11T00:49:44.899Z,14.10
2018-06-11T00:50:18.163Z,14.10
2018-06-11T00:50:51.400Z,14.10
2018-06-11T00:51:24.638Z,14.00
2018-06-11T00:51:57.856Z,14.00
2018-06-11T00:52:31.104Z,14.00
2018-06-11T00:53:04.392Z,14.00
2018-06-11T00:53:37.673Z,14.00
2018-06-11T00:54:10.942Z,14.00
2018-06-11T00:54:44.209Z,14.00
2018-06-11T00:55:17.402Z,14.00
2018-06-11T00:56:07.738Z,14.00
2018-06-11T00:56:40.954Z,14.00
2018-06-11T00:57:14.210Z,14.00
2018-06-11T00:57:47.435Z,14.00
2018-06-11T00:58:20.668Z,13.90
2018-06-11T00:58:53.966Z,13.90
2018-06-11T00:59:27.183Z,14.00
2018-06-11T01:00:00.430Z,13.90
2018-06-11T01:00:33.738Z,13.90
2018-06-11T01:01:07.016Z,13.90
2018-06-11T01:01:40.268Z,13.90
2018-06-11T01:02:13.520Z,13.90
2018-06-11T01:02:46.763Z,13.90
2018-06-11T01:03:20.042Z,13.90
2018-06-11T01:03:53.266Z,13.90
2018-06-11T01:04:26.494Z,13.90
2018-06-11T01:04:59.732Z,13.90
2018-06-11T01:05:32.990Z,13.90
2018-06-11T01:06:06.224Z,13.90
2018-06-11T01:06:39.494Z,13.80
2018-06-11T01:07:12.744Z,13.90
2018-06-11T01:07:45.976Z,13.80
2018-06-11T01:08:19.192Z,13.90
2018-06-11T01:08:52.441Z,13.80
2018-06-11T01:09:25.747Z,13.80
2018-06-11T01:09:59.002Z,13.80
2018-06-11T01:10:32.254Z,13.80
2018-06-11T01:11:05.502Z,13.80
2018-06-11T01:11:38.780Z,13.70
2018-06-11T01:12:11.975Z,13.50
2018-06-11T01:12:45.261Z,13.70
2018-06-11T01:13:18.529Z,13.70
2018-06-11T01:13:51.734Z,13.80
2018-06-11T01:14:24.950Z,13.60
2018-06-11T01:14:58.246Z,13.70
2018-06-11T01:15:31.508Z,13.60
2018-06-11T01:16:04.801Z,13.60
2018-06-11T01:16:38.058Z,13.60
2018-06-11T01:17:11.328Z,13.60
2018-06-11T01:17:44.573Z,13.60
2018-06-11T01:18:17.858Z,13.60
2018-06-11T01:18:51.084Z,13.60
2018-06-11T01:19:24.358Z,13.60
2018-06-11T01:19:57.780Z,13.60
2018-06-11T01:20:31.057Z,13.60
2018-06-11T01:21:04.274Z,13.50
2018-06-11T01:21:37.507Z,13.50
2018-06-11T01:22:10.742Z,13.50
2018-06-11T01:22:43.958Z,13.60
2018-06-11T01:23:17.179Z,13.40
2018-06-11T01:23:50.422Z,13.50
2018-06-11T01:24:23.676Z,13.40
2018-06-11T01:24:56.892Z,13.40
2018-06-11T01:25:30.137Z,13.40
2018-06-11T01:26:03.400Z,13.40
2018-06-11T01:26:36.607Z,13.30
2018-06-11T01:27:09.835Z,13.40
2018-06-11T01:27:43.070Z,13.30
2018-06-11T01:28:16.286Z,13.30
2018-06-11T01:28:49.497Z,13.30
2018-06-11T01:29:22.718Z,13.30
2018-06-11T01:29:55.919Z,13.30
2018-06-11T01:30:29.163Z,13.30
2018-06-11T01:31:02.436Z,13.30
2018-06-11T01:31:35.656Z,13.20
2018-06-11T01:32:08.917Z,13.30
2018-06-11T01:32:42.159Z,13.30
2018-06-11T01:33:15.370Z,13.30
2018-06-11T01:33:48.610Z,13.20
2018-06-11T01:34:21.854Z,13.30
2018-06-11T01:34:55.072Z,13.30
2018-06-11T01:35:28.308Z,13.30
2018-06-11T01:36:01.570Z,13.30
2018-06-11T01:36:34.782Z,13.30
2018-06-11T01:37:08.050Z,13.30
2018-06-11T01:37:41.254Z,13.30
2018-06-11T01:38:14.488Z,13.30
2018-06-11T01:38:47.720Z,13.30
2018-06-11T01:39:20.946Z,13.30
2018-06-11T01:39:54.175Z,13.30
2018-06-11T01:40:27.430Z,13.40
2018-06-11T01:41:00.684Z,13.40
2018-06-11T01:41:33.986Z,13.30
2018-06-11T01:42:07.210Z,13.40
2018-06-11T01:42:40.426Z,13.30
2018-06-11T01:43:13.652Z,13.40
2018-06-11T01:43:46.892Z,13.30
2018-06-11T01:44:20.149Z,13.30
2018-06-11T01:44:53.365Z,13.40
2018-06-11T01:45:26.608Z,13.30
2018-06-11T01:45:59.880Z,13.30
2018-06-11T01:46:33.118Z,13.30
2018-06-11T01:47:06.345Z,13.30
2018-06-11T01:47:39.626Z,13.30
2018-06-11T01:48:12.836Z,13.30
2018-06-11T01:48:46.078Z,13.30
2018-06-11T01:49:19.315Z,13.30
2018-06-11T01:49:52.538Z,13.20
2018-06-11T01:50:25.759Z,13.30
2018-06-11T01:50:58.966Z,13.30
2018-06-11T01:51:32.235Z,13.30
2018-06-11T01:52:05.498Z,13.30
2018-06-11T01:52:38.736Z,13.30
2018-06-11T01:53:11.949Z,13.20
2018-06-11T01:53:45.194Z,13.30
2018-06-11T01:54:18.462Z,13.20
2018-06-11T01:54:51.711Z,13.20
2018-06-11T01:55:24.965Z,13.30
2018-06-11T01:55:58.190Z,13.30
2018-06-11T01:56:31.445Z,13.30
2018-06-11T01:57:04.642Z,13.30
2018-06-11T01:57:37.916Z,13.30
2018-06-11T01:58:11.160Z,13.30
2018-06-11T01:58:44.356Z,13.30
2018-06-11T01:59:17.568Z,13.30
2018-06-11T01:59:50.782Z,13.30
2018-06-11T02:00:24.049Z,13.30
2018-06-11T02:00:57.322Z,13.30
2018-06-11T02:01:30.571Z,13.30
2018-06-11T02:02:03.847Z,13.30
2018-06-11T02:02:37.116Z,13.30
2018-06-11T02:03:10.386Z,13.20
2018-06-11T02:03:43.598Z,13.30
2018-06-11T02:04:16.844Z,13.20
2018-06-11T02:04:50.053Z,13.30
2018-06-11T02:05:23.278Z,13.30
2018-06-11T02:05:56.490Z,13.30
2018-06-11T02:06:29.728Z,13.20
2018-06-11T02:07:03.036Z,13.30
2018-06-11T02:07:36.263Z,13.30
2018-06-11T02:08:09.518Z,13.20
2018-06-11T02:08:42.766Z,13.20
2018-06-11T02:09:16.102Z,13.30
2018-06-11T02:09:49.288Z,13.20
2018-06-11T02:10:22.572Z,13.20
2018-06-11T02:10:55.812Z,13.20
2018-06-11T02:11:29.067Z,13.20
2018-06-11T02:12:02.326Z,13.20
2018-06-11T02:12:35.568Z,13.20
2018-06-11T02:13:08.977Z,13.20
2018-06-11T02:13:42.225Z,13.20
2018-06-11T02:14:15.434Z,13.20
2018-06-11T02:14:48.666Z,13.20
2018-06-11T02:15:21.890Z,13.20
2018-06-11T02:15:55.150Z,13.20
2018-06-11T02:16:28.392Z,13.20
2018-06-11T02:17:01.640Z,13.20
2018-06-11T02:17:34.906Z,13.20
2018-06-11T02:18:08.142Z,13.20
2018-06-11T02:18:41.383Z,13.20
2018-06-11T02:19:14.626Z,13.20
2018-06-11T02:19:47.836Z,13.20
2018-06-11T02:20:21.066Z,13.20
2018-06-11T02:20:54.301Z,13.30
2018-06-11T02:21:27.570Z,13.30
2018-06-11T02:22:00.845Z,13.20
2018-06-11T02:22:34.025Z,13.30
2018-06-11T02:23:07.247Z,13.20
2018-06-11T02:23:40.513Z,13.20
2018-06-11T02:24:13.796Z,13.10
2018-06-11T02:24:47.078Z,13.20
2018-06-11T02:25:20.294Z,13.10
2018-06-11T02:25:53.525Z,13.10
2018-06-11T02:26:26.716Z,13.10
2018-06-11T02:26:59.970Z,13.10
2018-06-11T02:27:33.187Z,13.10
2018-06-11T02:28:06.417Z,13.00
2018-06-11T02:28:39.676Z,13.00
2018-06-11T02:29:12.918Z,13.00
2018-06-11T02:29:46.170Z,13.00
2018-06-11T02:30:19.400Z,13.00
2018-06-11T02:30:52.611Z,13.00
2018-06-11T02:31:25.839Z,13.00
2018-06-11T02:31:59.055Z,13.00
2018-06-11T02:32:32.286Z,13.00
2018-06-11T02:33:05.602Z,12.90
2018-06-11T02:33:38.831Z,12.90
2018-06-11T02:34:12.071Z,12.90
2018-06-11T02:34:45.282Z,12.90
2018-06-11T02:35:18.541Z,12.90
2018-06-11T02:35:51.772Z,12.90
2018-06-11T02:36:25.023Z,12.90
2018-06-11T02:36:58.238Z,12.90
2018-06-11T02:37:31.546Z,12.80
2018-06-11T02:38:04.770Z,12.80
2018-06-11T02:38:38.020Z,12.80
2018-06-11T02:39:11.275Z,12.80
2018-06-11T02:39:44.528Z,12.80
2018-06-11T02:40:17.726Z,12.90
2018-06-11T02:40:50.966Z,12.80
2018-06-11T02:41:24.162Z,12.70
2018-06-11T02:41:57.374Z,12.70
2018-06-11T02:42:30.866Z,12.70
2018-06-11T02:43:04.429Z,12.60
2018-06-11T02:43:37.651Z,12.70
2018-06-11T02:44:10.869Z,12.70
2018-06-11T02:44:44.090Z,12.70
2018-06-11T02:45:17.317Z,12.70
2018-06-11T02:45:50.577Z,12.70
2018-06-11T02:46:23.811Z,12.70
2018-06-11T02:46:57.052Z,12.70
2018-06-11T02:47:30.304Z,12.60
2018-06-11T02:48:03.567Z,12.60
2018-06-11T02:48:36.843Z,12.60
2018-06-11T02:49:10.043Z,12.70
2018-06-11T02:49:43.248Z,12.70
2018-06-11T02:50:16.490Z,12.70
2018-06-11T02:50:49.732Z,12.70
2018-06-11T02:51:22.972Z,12.60
2018-06-11T02:51:56.248Z,12.70
2018-06-11T02:52:29.507Z,12.80
2018-06-11T02:53:02.852Z,12.70
2018-06-11T02:53:36.066Z,12.70
2018-06-11T02:54:09.292Z,12.70
2018-06-11T02:54:42.640Z,12.70
2018-06-11T02:56:16.589Z,12.80
2018-06-11T02:56:49.820Z,12.80
2018-06-11T02:57:23.034Z,12.80
2018-06-11T02:57:56.335Z,12.80
2018-06-11T02:58:29.560Z,12.80
2018-06-11T02:59:02.882Z,12.80
2018-06-11T02:59:36.126Z,12.80
2018-06-11T03:00:09.351Z,12.80
2018-06-11T03:00:42.590Z,12.80
2018-06-11T03:01:15.815Z,12.70
2018-06-11T03:01:49.062Z,12.80
2018-06-11T03:02:22.326Z,12.80
2018-06-11T03:02:55.582Z,12.80
2018-06-11T03:03:28.833Z,12.80
2018-06-11T03:04:02.121Z,12.80
2018-06-11T03:04:35.351Z,12.90
2018-06-11T03:05:08.602Z,12.80
2018-06-11T03:05:41.802Z,12.80
2018-06-11T03:06:15.043Z,12.80
2018-06-11T03:06:48.259Z,12.80
2018-06-11T03:07:21.518Z,12.90
2018-06-11T03:07:54.756Z,12.80
2018-06-11T03:08:27.972Z,12.80
2018-06-11T03:09:01.187Z,12.80
2018-06-11T03:09:34.394Z,12.80
2018-06-11T03:10:07.602Z,12.90
2018-06-11T03:10:40.852Z,12.90
2018-06-11T03:11:14.124Z,12.90
2018-06-11T03:11:47.382Z,12.80
2018-06-11T03:12:20.630Z,12.80
2018-06-11T03:12:53.891Z,12.90
2018-06-11T03:13:27.135Z,12.90
2018-06-11T03:14:00.467Z,12.80
2018-06-11T03:14:33.728Z,12.80
2018-06-11T03:15:06.988Z,12.80
2018-06-11T03:15:40.289Z,12.80
2018-06-11T03:16:13.467Z,12.80
2018-06-11T03:16:46.739Z,12.80
2018-06-11T03:17:20.514Z,12.80
2018-06-11T03:17:53.803Z,12.90
2018-06-11T03:18:27.109Z,12.80
2018-06-11T03:19:00.400Z,12.80
2018-06-11T03:19:33.628Z,12.90
2018-06-11T03:20:06.920Z,12.80
2018-06-11T03:20:40.156Z,12.80
2018-06-11T03:21:13.386Z,12.80
2018-06-11T03:21:46.637Z,12.80
2018-06-11T03:22:19.876Z,13.00
2018-06-11T03:22:53.122Z,12.90
2018-06-11T03:23:26.376Z,12.80
2018-06-11T03:23:59.638Z,12.80
2018-06-11T03:24:32.856Z,12.90
2018-06-11T03:25:06.220Z,12.70
2018-06-11T03:25:39.587Z,12.80
2018-06-11T03:26:12.816Z,12.90
2018-06-11T03:26:46.088Z,12.80
2018-06-11T03:27:19.312Z,12.80
2018-06-11T03:27:52.604Z,12.90
2018-06-11T03:28:25.854Z,12.80
2018-06-11T03:28:59.212Z,12.80
2018-06-11T03:29:32.466Z,12.80
2018-06-11T03:30:05.702Z,12.90
2018-06-11T03:30:38.922Z,12.80
2018-06-11T03:31:12.143Z,12.80
2018-06-11T03:31:45.385Z,12.80
2018-06-11T03:32:19.412Z,12.80
2018-06-11T03:32:52.719Z,12.90
2018-06-11T03:33:25.978Z,12.90
2018-06-11T03:33:59.251Z,12.90
2018-06-11T03:34:32.496Z,12.90
2018-06-11T03:35:05.788Z,12.80
2018-06-11T03:35:39.050Z,12.90
2018-06-11T03:36:12.278Z,12.90
2018-06-11T03:36:45.541Z,12.90
2018-06-11T03:37:18.784Z,12.90
2018-06-11T03:37:52.006Z,13.00
2018-06-11T03:38:25.235Z,13.00
2018-06-11T03:38:58.452Z,13.00
2018-06-11T03:39:31.690Z,12.90
2018-06-11T03:40:04.941Z,13.00
2018-06-11T03:40:38.182Z,13.00
2018-06-11T03:41:11.412Z,13.10
2018-06-11T03:41:44.660Z,13.00
2018-06-11T03:42:17.884Z,13.00
2018-06-11T03:42:51.112Z,13.00
2018-06-11T03:43:24.327Z,13.10
2018-06-11T03:43:57.560Z,13.10
2018-06-11T03:44:30.766Z,13.10
2018-06-11T03:45:04.230Z,13.10
2018-06-11T03:45:37.452Z,13.10
2018-06-11T03:46:10.670Z,13.10
2018-06-11T03:46:43.947Z,13.20
2018-06-11T03:47:17.194Z,13.20
2018-06-11T03:47:50.563Z,13.20
2018-06-11T03:48:23.815Z,13.20
2018-06-11T03:48:57.032Z,13.20
2018-06-11T03:49:30.262Z,13.10
2018-06-11T03:50:03.566Z,13.20
2018-06-11T03:50:36.813Z,13.20
2018-06-11T03:51:10.062Z,13.20
2018-06-11T03:51:43.290Z,13.30
2018-06-11T03:52:16.613Z,13.20
2018-06-11T03:52:49.891Z,13.30
2018-06-11T03:53:23.066Z,13.30
2018-06-11T03:53:56.290Z,13.30
2018-06-11T03:54:29.542Z,13.40
2018-06-11T03:55:02.822Z,13.40
2018-06-11T03:55:36.062Z,13.30
2018-06-11T03:56:09.342Z,13.40
2018-06-11T03:56:42.586Z,13.40
2018-06-11T03:57:15.868Z,13.40
2018-06-11T03:57:49.084Z,13.50
2018-06-11T03:58:22.324Z,13.40
2018-06-11T03:58:55.530Z,13.50
2018-06-11T03:59:28.778Z,13.50
2018-06-11T04:00:02.021Z,13.50
2018-06-11T04:00:35.302Z,13.50
2018-06-11T04:01:08.555Z,13.50
2018-06-11T04:01:41.892Z,13.50
2018-06-11T04:02:15.114Z,13.50
2018-06-11T04:02:48.350Z,13.60
2018-06-11T04:03:21.624Z,13.50
2018-06-11T04:03:54.893Z,13.50
2018-06-11T04:04:28.172Z,13.60
2018-06-11T04:05:01.410Z,13.60
2018-06-11T04:05:34.732Z,13.50
2018-06-11T04:06:07.982Z,13.60
2018-06-11T04:06:41.276Z,13.60
2018-06-11T04:07:14.505Z,13.60
2018-06-11T04:07:47.779Z,13.60
2018-06-11T04:08:21.002Z,13.60
2018-06-11T04:08:54.272Z,13.60
2018-06-11T04:09:27.504Z,13.60
2018-06-11T04:10:00.766Z,13.60
2018-06-11T04:10:34.000Z,13.60
2018-06-11T04:11:07.277Z,13.60
2018-06-11T04:11:40.522Z,13.70
2018-06-11T04:12:13.748Z,13.70
2018-06-11T04:12:46.985Z,13.70
2018-06-11T04:13:20.229Z,13.70
2018-06-11T04:13:53.485Z,13.70
2018-06-11T04:14:26.744Z,13.70
2018-06-11T04:14:59.946Z,13.70
2018-06-11T04:15:33.176Z,13.70
2018-06-11T04:16:57.312Z,13.70
2018-06-11T04:17:30.566Z,13.70
2018-06-11T04:18:03.832Z,13.70
2018-06-11T04:18:37.048Z,13.70
2018-06-11T04:19:10.318Z,13.80
2018-06-11T04:19:43.548Z,13.80
2018-06-11T04:20:16.750Z,13.70
2018-06-11T04:20:50.019Z,13.80
2018-06-11T04:21:23.284Z,13.70
2018-06-11T04:21:56.519Z,13.70
2018-06-11T04:22:29.754Z,13.80
2018-06-11T04:23:02.958Z,13.80
2018-06-11T04:23:36.247Z,13.80
2018-06-11T04:24:09.516Z,13.80
2018-06-11T04:24:42.742Z,13.80
2018-06-11T04:25:15.988Z,13.80
2018-06-11T04:25:49.250Z,13.80
2018-06-11T04:26:22.468Z,13.80
2018-06-11T04:26:55.700Z,13.90
2018-06-11T04:27:28.956Z,13.80
2018-06-11T04:28:02.212Z,13.90
2018-06-11T04:28:35.434Z,13.90
2018-06-11T04:29:08.678Z,14.00
2018-06-11T04:29:41.876Z,14.00
2018-06-11T04:30:15.106Z,14.00
2018-06-11T04:30:48.322Z,14.00
2018-06-11T04:31:21.556Z,14.00
2018-06-11T04:31:54.807Z,14.00
2018-06-11T04:32:28.014Z,14.00
2018-06-11T04:33:01.286Z,14.10
2018-06-11T04:33:34.528Z,14.00
2018-06-11T04:34:07.810Z,14.10
2018-06-11T04:34:41.054Z,14.10
2018-06-11T04:35:14.329Z,14.20
2018-06-11T04:35:47.541Z,14.10
2018-06-11T04:36:20.782Z,14.20
2018-06-11T04:36:54.034Z,14.20
2018-06-11T04:37:27.260Z,14.20
2018-06-11T04:38:00.508Z,14.20
2018-06-11T04:38:33.814Z,14.20
2018-06-11T04:39:07.762Z,14.20
2018-06-11T04:39:40.993Z,14.20
2018-06-11T04:40:14.238Z,14.20
2018-06-11T04:40:47.434Z,14.30
2018-06-11T04:41:20.758Z,14.30
2018-06-11T04:41:54.000Z,14.30
2018-06-11T04:42:27.196Z,14.40
2018-06-11T04:43:00.467Z,14.40
2018-06-11T04:43:33.710Z,14.40
2018-06-11T04:44:06.955Z,14.40
2018-06-11T04:44:40.150Z,14.50
2018-06-11T04:45:13.457Z,14.50
2018-06-11T04:45:46.732Z,14.50
2018-06-11T04:46:19.962Z,14.60
2018-06-11T04:46:53.302Z,14.60
2018-06-11T04:47:26.514Z,14.60
2018-06-11T04:47:59.711Z,14.70
2018-06-11T04:48:32.974Z,14.60
2018-06-11T04:49:06.467Z,14.70
2018-06-11T04:49:39.673Z,14.70
2018-06-11T04:50:12.931Z,14.80
2018-06-11T04:50:46.256Z,14.70
2018-06-11T04:51:19.477Z,14.90
2018-06-11T04:51:52.731Z,14.90
2018-06-11T04:52:25.947Z,14.90
2018-06-11T04:52:59.171Z,14.90
2018-06-11T04:53:32.496Z,14.90
2018-06-11T04:54:05.750Z,14.90
2018-06-11T04:54:39.050Z,15.10
2018-06-11T04:55:12.308Z,15.00
2018-06-11T04:55:45.620Z,15.10
2018-06-11T04:56:18.869Z,15.20
2018-06-11T04:56:52.088Z,15.20
2018-06-11T04:57:25.306Z,15.30
2018-06-11T04:57:58.597Z,15.30
2018-06-11T04:58:31.856Z,15.30
2018-06-11T04:59:05.089Z,15.40
2018-06-11T04:59:38.324Z,15.50
2018-06-11T05:00:11.558Z,15.50
2018-06-11T05:00:44.758Z,15.60
2018-06-11T05:01:18.028Z,15.60
2018-06-11T05:01:51.238Z,15.60
2018-06-11T05:02:24.516Z,15.70
2018-06-11T05:02:57.756Z,15.70
2018-06-11T05:03:30.984Z,15.80
2018-06-11T05:04:04.300Z,15.80
2018-06-11T05:04:37.555Z,15.90
2018-06-11T05:05:10.790Z,15.90
2018-06-11T05:05:44.017Z,16.00
2018-06-11T05:06:17.258Z,16.00
2018-06-11T05:06:50.482Z,16.10
2018-06-11T05:07:23.724Z,16.10
2018-06-11T05:07:56.932Z,16.20
2018-06-11T05:08:30.195Z,16.20
2018-06-11T05:09:04.666Z,16.20
2018-06-11T05:09:37.931Z,16.30
2018-06-11T05:10:11.215Z,16.40
2018-06-11T05:10:44.488Z,16.40
2018-06-11T05:11:17.730Z,16.40
2018-06-11T05:11:50.947Z,16.50
2018-06-11T05:12:24.146Z,16.50
2018-06-11T05:12:57.368Z,16.50
2018-06-11T05:13:30.620Z,16.60
2018-06-11T05:14:03.863Z,16.60
2018-06-11T05:14:37.065Z,16.70
2018-06-11T05:15:10.348Z,16.80
2018-06-11T05:15:43.581Z,16.90
2018-06-11T05:16:16.811Z,16.90
2018-06-11T05:16:50.048Z,16.90
2018-06-11T05:17:23.305Z,17.10
2018-06-11T05:17:56.546Z,17.20
2018-06-11T05:18:29.784Z,17.10
2018-06-11T05:19:03.012Z,17.10
2018-06-11T05:19:36.225Z,17.20
2018-06-11T05:20:09.519Z,17.30
2018-06-11T05:20:42.716Z,17.20
2018-06-11T05:21:15.976Z,17.40
2018-06-11T05:21:49.200Z,17.30
2018-06-11T05:22:22.426Z,17.30
2018-06-11T05:22:55.669Z,17.10
2018-06-11T05:23:28.914Z,17.20
2018-06-11T05:24:02.110Z,17.20
2018-06-11T05:24:35.363Z,17.20
2018-06-11T05:25:08.626Z,17.30
2018-06-11T05:25:41.884Z,17.20
2018-06-11T05:26:15.153Z,17.30
2018-06-11T05:26:48.434Z,17.30
2018-06-11T05:27:21.686Z,17.20
2018-06-11T05:27:54.912Z,17.20
2018-06-11T05:28:28.128Z,17.20
2018-06-11T05:29:01.382Z,17.30
2018-06-11T05:29:34.594Z,17.30
2018-06-11T05:30:07.814Z,17.10
2018-06-11T05:30:41.026Z,17.00
2018-06-11T05:31:14.253Z,17.30
2018-06-11T05:31:47.514Z,17.30
2018-06-11T05:32:20.952Z,17.20
2018-06-11T05:32:54.162Z,17.20
2018-06-11T05:33:27.420Z,17.10
2018-06-11T05:34:00.648Z,17.10
2018-06-11T05:34:33.911Z,17.10
2018-06-11T05:35:07.162Z,17.10
2018-06-11T05:35:40.467Z,17.20
2018-06-11T05:36:13.742Z,17.30
2018-06-11T05:36:47.063Z,17.40
2018-06-11T05:37:20.338Z,17.30
2018-06-11T05:37:53.598Z,17.40
2018-06-11T05:38:26.840Z,17.30
2018-06-11T05:39:00.055Z,17.60
2018-06-11T05:39:33.296Z,17.70
2018-06-11T05:40:06.539Z,17.70
2018-06-11T05:40:39.793Z,17.90
2018-06-11T05:41:13.006Z,17.80
2018-06-11T05:41:46.270Z,17.60
2018-06-11T05:42:19.522Z,17.80
2018-06-11T05:42:52.746Z,17.90
2018-06-11T05:43:25.967Z,17.80
2018-06-11T05:43:59.146Z,17.90
2018-06-11T05:44:32.388Z,18.00
2018-06-11T05:45:05.676Z,18.20
2018-06-11T05:45:38.939Z,18.20
2018-06-11T05:46:12.204Z,18.20
2018-06-11T05:46:45.426Z,18.10
2018-06-11T05:47:18.674Z,18.10
2018-06-11T05:47:51.902Z,18.00
2018-06-11T05:48:25.184Z,17.90
2018-06-11T05:48:58.421Z,17.90
2018-06-11T05:49:31.649Z,17.90
2018-06-11T05:50:04.926Z,18.00
2018-06-11T05:50:38.208Z,18.00
2018-06-11T05:51:11.444Z,18.20
2018-06-11T05:51:44.696Z,18.10
2018-06-11T05:52:17.914Z,18.20
2018-06-11T05:52:51.154Z,18.20
2018-06-11T05:53:24.446Z,18.10
2018-06-11T05:53:57.764Z,18.20
2018-06-11T05:54:30.999Z,18.20
2018-06-11T05:55:04.399Z,18.20
2018-06-11T05:55:37.631Z,18.20
2018-06-11T05:56:10.876Z,18.20
2018-06-11T05:56:44.102Z,18.40
2018-06-11T05:57:17.322Z,18.50
2018-06-11T05:57:50.567Z,18.50
2018-06-11T05:58:23.852Z,18.50
2018-06-11T05:58:57.120Z,18.60
2018-06-11T05:59:30.350Z,18.70
2018-06-11T06:00:03.996Z,18.80
2018-06-11T06:00:37.242Z,18.80
2018-06-11T06:01:10.463Z,18.60
2018-06-11T06:01:43.682Z,18.60
2018-06-11T06:02:16.953Z,18.80
2018-06-11T06:02:50.179Z,18.90
2018-06-11T06:03:23.424Z,19.10
2018-06-11T06:03:56.632Z,19.30
2018-06-11T06:04:29.907Z,19.50
2018-06-11T06:05:03.193Z,19.40
2018-06-11T06:05:36.440Z,19.40
2018-06-11T06:06:09.666Z,19.40
2018-06-11T06:06:42.879Z,19.50
2018-06-11T06:07:16.167Z,19.30
2018-06-11T06:07:49.404Z,19.30
2018-06-11T06:08:22.647Z,19.40
2018-06-11T06:08:55.922Z,19.50
2018-06-11T06:09:29.161Z,19.70
2018-06-11T06:10:02.499Z,19.80
2018-06-11T06:10:35.734Z,19.90
2018-06-11T06:11:09.324Z,20.00
2018-06-11T06:11:42.599Z,19.90
2018-06-11T06:12:15.821Z,19.80
2018-06-11T06:12:49.010Z,19.90
2018-06-11T06:13:22.262Z,19.60
2018-06-11T06:13:55.548Z,19.80
2018-06-11T06:14:28.770Z,19.90
2018-06-11T06:15:01.999Z,19.70
2018-06-11T06:15:35.264Z,19.80
2018-06-11T06:16:08.500Z,19.90
2018-06-11T06:16:41.722Z,20.10
2018-06-11T06:17:14.960Z,20.30
2018-06-11T06:17:48.183Z,20.00
2018-06-11T06:19:50.953Z,20.00
2018-06-11T06:20:24.259Z,20.00
2018-06-11T06:20:57.506Z,20.40
2018-06-11T06:21:30.791Z,20.50
2018-06-11T06:22:04.033Z,20.50
2018-06-11T06:22:37.265Z,20.70
2018-06-11T06:23:10.468Z,20.80
2018-06-11T06:23:43.674Z,20.60
2018-06-11T06:24:16.910Z,20.40
2018-06-11T06:24:50.142Z,20.40
2018-06-11T06:25:23.411Z,20.60
2018-06-11T06:25:56.675Z,20.60
2018-06-11T06:26:29.945Z,20.60
2018-06-11T06:27:03.186Z,20.70
2018-06-11T06:27:36.386Z,20.50
2018-06-11T06:28:09.626Z,20.60
2018-06-11T06:28:42.848Z,20.70
2018-06-11T06:29:16.066Z,20.80
2018-06-11T06:29:49.279Z,20.90
2018-06-11T06:30:22.530Z,21.00
2018-06-11T06:30:55.754Z,21.10
2018-06-11T06:31:29.075Z,20.60
2018-06-11T06:32:02.570Z,20.40
2018-06-11T06:32:35.812Z,20.30
2018-06-11T06:33:09.043Z,20.60
2018-06-11T06:33:42.278Z,20.80
2018-06-11T06:34:15.679Z,20.70
2018-06-11T06:34:48.964Z,20.80
2018-06-11T06:35:22.074Z,21.30
2018-06-11T06:35:55.341Z,21.70
2018-06-11T06:36:28.612Z,22.10
2018-06-11T06:37:01.870Z,22.40
2018-06-11T06:37:35.148Z,22.90
2018-06-11T06:38:08.402Z,23.40
2018-06-11T06:38:41.723Z,24.00
2018-06-11T06:39:14.976Z,24.40
2018-06-11T06:39:48.228Z,24.70
2018-06-11T06:40:21.491Z,25.50
2018-06-11T06:40:54.716Z,26.00
2018-06-11T06:41:27.986Z,26.80
2018-06-11T06:42:01.206Z,27.00
2018-06-11T06:42:34.453Z,27.30
2018-06-11T06:43:07.936Z,26.80
2018-06-11T06:43:41.179Z,25.90
2018-06-11T06:44:14.416Z,25.50
2018-06-11T06:44:47.707Z,24.70
2018-06-11T06:45:20.960Z,25.10
2018-06-11T06:45:54.286Z,25.30
2018-06-11T06:46:27.514Z,25.20
2018-06-11T06:47:01.269Z,25.60
2018-06-11T06:47:34.486Z,26.40
2018-06-11T06:48:07.725Z,26.70
2018-06-11T06:48:40.938Z,28.00
2018-06-11T06:49:14.174Z,28.70
2018-06-11T06:49:47.398Z,28.80
2018-06-11T06:50:20.614Z,28.90
2018-06-11T06:50:53.882Z,29.00
2018-06-11T06:51:27.236Z,29.20
2018-06-11T06:52:00.666Z,29.60
2018-06-11T06:52:33.970Z,29.90
2018-06-11T06:53:07.212Z,29.90
2018-06-11T06:53:40.553Z,28.30
2018-06-11T06:54:13.786Z,28.00
2018-06-11T06:54:47.046Z,28.30
2018-06-11T06:55:20.286Z,29.10
2018-06-11T06:55:53.502Z,30.00
2018-06-11T06:56:26.856Z,30.60
2018-06-11T06:57:00.043Z,31.00
2018-06-11T06:57:33.314Z,31.40
2018-06-11T06:58:06.550Z,31.70
2018-06-11T06:58:39.798Z,31.90
2018-06-11T06:59:13.027Z,32.10
2018-06-11T06:59:46.227Z,32.60
2018-06-11T07:00:19.598Z,33.10
2018-06-11T07:00:52.836Z,33.10
2018-06-11T07:01:26.092Z,33.60
2018-06-11T07:01:59.336Z,33.70
2018-06-11T07:02:32.608Z,33.90
2018-06-11T07:03:05.820Z,33.20
2018-06-11T07:03:39.067Z,32.00
2018-06-11T07:04:12.375Z,30.90
2018-06-11T07:04:45.594Z,30.90
2018-06-11T07:05:18.827Z,31.70
2018-06-11T07:06:07.028Z,32.00
2018-06-11T07:06:40.274Z,32.50
2018-06-11T07:07:13.522Z,32.40
2018-06-11T07:07:46.732Z,32.20
2018-06-11T07:08:19.976Z,31.80
2018-06-11T07:08:53.208Z,31.20
2018-06-11T07:09:26.466Z,30.80
2018-06-11T07:09:59.712Z,30.40
2018-06-11T07:10:32.962Z,30.40
2018-06-11T07:11:06.208Z,29.10
2018-06-11T07:11:39.442Z,29.00
2018-06-11T07:12:12.674Z,28.20